sensor_id;sensor_type;location;lat;lon;timestamp;P1;durP1;ratioP1;P2;durP2;ratioP2
20427;SDS011;10373;49.768;18.302;2023-06-10T00:01:27;31.08;;;24.52;;
20427;SDS011;10373;49.768;18.302;2023-06-10T00:03:53;36.35;;;25.92;;
20427;SDS011;10373;49.768;18.302;2023-06-10T00:06:19;29.33;;;23.65;;
20427;SDS011;10373;49.768;18.302;2023-06-10T00:08:46;32.33;;;25.85;;
20427;SDS011;10373;49.768;18.302;2023-06-10T00:11:12;30.20;;;26.35;;
20427;SDS011;10373;49.768;18.302;2023-06-10T00:13:38;28.92;;;23.90;;
20427;SDS011;10373;49.768;18.302;2023-06-10T00:16:05;29.00;;;24.30;;
20427;SDS011;10373;49.768;18.302;2023-06-10T00:18:30;28.35;;;24.55;;
20427;SDS011;10373;49.768;18.302;2023-06-10T00:20:57;29.77;;;25.05;;
20427;SDS011;10373;49.768;18.302;2023-06-10T00:23:29;32.60;;;26.65;;
20427;SDS011;10373;49.768;18.302;2023-06-10T00:25:57;30.17;;;26.10;;
20427;SDS011;10373;49.768;18.302;2023-06-10T00:28:24;29.25;;;24.35;;
20427;SDS011;10373;49.768;18.302;2023-06-10T00:30:49;27.92;;;24.98;;
20427;SDS011;10373;49.768;18.302;2023-06-10T00:33:15;26.77;;;23.88;;
20427;SDS011;10373;49.768;18.302;2023-06-10T00:35:40;29.65;;;25.85;;
20427;SDS011;10373;49.768;18.302;2023-06-10T00:38:06;24.92;;;22.23;;
20427;SDS011;10373;49.768;18.302;2023-06-10T00:40:33;27.50;;;24.33;;
20427;SDS011;10373;49.768;18.302;2023-06-10T00:43:03;28.45;;;24.35;;
20427;SDS011;10373;49.768;18.302;2023-06-10T00:45:29;26.75;;;23.70;;
20427;SDS011;10373;49.768;18.302;2023-06-10T00:47:55;22.65;;;20.30;;
20427;SDS011;10373;49.768;18.302;2023-06-10T00:50:21;24.33;;;21.63;;
20427;SDS011;10373;49.768;18.302;2023-06-10T00:52:46;27.88;;;24.40;;
20427;SDS011;10373;49.768;18.302;2023-06-10T00:55:14;27.65;;;22.95;;
20427;SDS011;10373;49.768;18.302;2023-06-10T00:57:41;29.40;;;24.83;;
20427;SDS011;10373;49.768;18.302;2023-06-10T01:00:10;32.38;;;28.02;;
20427;SDS011;10373;49.768;18.302;2023-06-10T01:02:36;30.50;;;25.45;;
20427;SDS011;10373;49.768;18.302;2023-06-10T01:05:02;33.80;;;27.55;;
20427;SDS011;10373;49.768;18.302;2023-06-10T01:07:31;32.28;;;28.33;;
20427;SDS011;10373;49.768;18.302;2023-06-10T01:12:46;31.23;;;26.58;;
20427;SDS011;10373;49.768;18.302;2023-06-10T01:15:15;26.42;;;23.50;;
20427;SDS011;10373;49.768;18.302;2023-06-10T01:17:58;29.08;;;23.95;;
20427;SDS011;10373;49.768;18.302;2023-06-10T01:20:27;27.35;;;24.38;;
20427;SDS011;10373;49.768;18.302;2023-06-10T01:22:54;30.02;;;26.40;;
20427;SDS011;10373;49.768;18.302;2023-06-10T01:25:22;32.17;;;27.70;;
20427;SDS011;10373;49.768;18.302;2023-06-10T01:27:53;23.92;;;21.08;;
20427;SDS011;10373;49.768;18.302;2023-06-10T01:30:46;24.08;;;20.67;;
20427;SDS011;10373;49.768;18.302;2023-06-10T01:33:17;26.90;;;22.83;;
20427;SDS011;10373;49.768;18.302;2023-06-10T01:35:58;26.65;;;23.73;;
20427;SDS011;10373;49.768;18.302;2023-06-10T01:38:25;29.60;;;26.20;;
20427;SDS011;10373;49.768;18.302;2023-06-10T01:40:55;20.10;;;18.00;;
20427;SDS011;10373;49.768;18.302;2023-06-10T01:43:21;25.25;;;22.58;;
20427;SDS011;10373;49.768;18.302;2023-06-10T01:45:47;28.75;;;24.35;;
20427;SDS011;10373;49.768;18.302;2023-06-10T01:48:13;29.95;;;26.30;;
20427;SDS011;10373;49.768;18.302;2023-06-10T01:50:38;27.15;;;24.25;;
20427;SDS011;10373;49.768;18.302;2023-06-10T01:53:04;33.65;;;27.27;;
20427;SDS011;10373;49.768;18.302;2023-06-10T01:55:33;30.88;;;27.50;;
20427;SDS011;10373;49.768;18.302;2023-06-10T01:57:58;27.83;;;24.23;;
20427;SDS011;10373;49.768;18.302;2023-06-10T02:00:24;32.17;;;27.35;;
20427;SDS011;10373;49.768;18.302;2023-06-10T02:02:50;26.02;;;23.23;;
20427;SDS011;10373;49.768;18.302;2023-06-10T02:05:15;32.40;;;25.80;;
20427;SDS011;10373;49.768;18.302;2023-06-10T02:07:41;28.42;;;25.25;;
20427;SDS011;10373;49.768;18.302;2023-06-10T02:10:07;27.75;;;24.33;;
20427;SDS011;10373;49.768;18.302;2023-06-10T02:12:33;25.75;;;22.83;;
20427;SDS011;10373;49.768;18.302;2023-06-10T02:14:59;27.98;;;24.63;;
20427;SDS011;10373;49.768;18.302;2023-06-10T02:17:24;26.27;;;23.33;;
20427;SDS011;10373;49.768;18.302;2023-06-10T02:19:51;30.10;;;26.80;;
20427;SDS011;10373;49.768;18.302;2023-06-10T02:22:21;33.65;;;28.55;;
20427;SDS011;10373;49.768;18.302;2023-06-10T02:24:48;26.00;;;23.30;;
20427;SDS011;10373;49.768;18.302;2023-06-10T02:27:14;27.50;;;24.60;;
20427;SDS011;10373;49.768;18.302;2023-06-10T02:29:40;25.52;;;22.70;;
20427;SDS011;10373;49.768;18.302;2023-06-10T02:32:07;26.83;;;23.88;;
20427;SDS011;10373;49.768;18.302;2023-06-10T02:34:33;29.58;;;25.08;;
20427;SDS011;10373;49.768;18.302;2023-06-10T02:36:59;28.42;;;25.52;;
20427;SDS011;10373;49.768;18.302;2023-06-10T02:39:25;28.40;;;25.30;;
20427;SDS011;10373;49.768;18.302;2023-06-10T02:41:52;26.95;;;23.60;;
20427;SDS011;10373;49.768;18.302;2023-06-10T02:44:18;28.55;;;25.42;;
20427;SDS011;10373;49.768;18.302;2023-06-10T02:46:44;30.10;;;26.85;;
20427;SDS011;10373;49.768;18.302;2023-06-10T02:49:11;25.23;;;22.50;;
20427;SDS011;10373;49.768;18.302;2023-06-10T02:51:37;23.95;;;21.45;;
20427;SDS011;10373;49.768;18.302;2023-06-10T02:54:03;26.83;;;23.98;;
20427;SDS011;10373;49.768;18.302;2023-06-10T02:56:28;29.77;;;26.63;;
20427;SDS011;10373;49.768;18.302;2023-06-10T02:58:54;25.08;;;22.58;;
20427;SDS011;10373;49.768;18.302;2023-06-10T03:01:20;27.77;;;24.88;;
20427;SDS011;10373;49.768;18.302;2023-06-10T03:03:46;27.70;;;24.92;;
20427;SDS011;10373;49.768;18.302;2023-06-10T03:06:12;27.05;;;24.08;;
20427;SDS011;10373;49.768;18.302;2023-06-10T03:08:39;28.08;;;25.17;;
20427;SDS011;10373;49.768;18.302;2023-06-10T03:11:05;29.17;;;26.10;;
20427;SDS011;10373;49.768;18.302;2023-06-10T03:13:31;29.13;;;25.25;;
20427;SDS011;10373;49.768;18.302;2023-06-10T03:15:57;30.52;;;27.33;;
20427;SDS011;10373;49.768;18.302;2023-06-10T03:18:26;27.15;;;24.23;;
20427;SDS011;10373;49.768;18.302;2023-06-10T03:20:53;26.02;;;23.27;;
20427;SDS011;10373;49.768;18.302;2023-06-10T03:23:22;24.30;;;21.63;;
20427;SDS011;10373;49.768;18.302;2023-06-10T03:25:48;28.98;;;26.00;;
20427;SDS011;10373;49.768;18.302;2023-06-10T03:28:14;27.10;;;24.30;;
20427;SDS011;10373;49.768;18.302;2023-06-10T03:30:40;27.08;;;24.20;;
20427;SDS011;10373;49.768;18.302;2023-06-10T03:33:05;25.88;;;23.23;;
20427;SDS011;10373;49.768;18.302;2023-06-10T03:35:31;30.52;;;25.88;;
20427;SDS011;10373;49.768;18.302;2023-06-10T03:37:57;27.52;;;24.73;;
20427;SDS011;10373;49.768;18.302;2023-06-10T03:40:24;27.75;;;24.85;;
20427;SDS011;10373;49.768;18.302;2023-06-10T03:42:49;26.73;;;23.95;;
20427;SDS011;10373;49.768;18.302;2023-06-10T03:45:15;28.05;;;25.00;;
20427;SDS011;10373;49.768;18.302;2023-06-10T03:47:41;27.15;;;24.25;;
20427;SDS011;10373;49.768;18.302;2023-06-10T03:50:08;25.63;;;22.92;;
20427;SDS011;10373;49.768;18.302;2023-06-10T03:52:35;26.05;;;23.10;;
20427;SDS011;10373;49.768;18.302;2023-06-10T03:55:01;27.17;;;24.35;;
20427;SDS011;10373;49.768;18.302;2023-06-10T03:57:26;29.35;;;25.55;;
20427;SDS011;10373;49.768;18.302;2023-06-10T03:59:52;28.30;;;25.20;;
20427;SDS011;10373;49.768;18.302;2023-06-10T04:02:18;25.15;;;22.42;;
20427;SDS011;10373;49.768;18.302;2023-06-10T04:04:44;27.45;;;24.55;;
20427;SDS011;10373;49.768;18.302;2023-06-10T04:07:10;27.70;;;23.65;;
20427;SDS011;10373;49.768;18.302;2023-06-10T04:09:36;29.85;;;26.55;;
20427;SDS011;10373;49.768;18.302;2023-06-10T04:12:02;29.88;;;26.67;;
20427;SDS011;10373;49.768;18.302;2023-06-10T04:14:31;26.85;;;24.13;;
20427;SDS011;10373;49.768;18.302;2023-06-10T04:16:56;29.15;;;25.98;;
20427;SDS011;10373;49.768;18.302;2023-06-10T04:19:22;28.90;;;25.25;;
20427;SDS011;10373;49.768;18.302;2023-06-10T04:21:48;29.38;;;23.60;;
20427;SDS011;10373;49.768;18.302;2023-06-10T04:24:13;25.10;;;22.50;;
20427;SDS011;10373;49.768;18.302;2023-06-10T04:26:39;25.60;;;22.90;;
20427;SDS011;10373;49.768;18.302;2023-06-10T04:29:04;28.45;;;23.15;;
20427;SDS011;10373;49.768;18.302;2023-06-10T04:31:30;24.52;;;21.73;;
20427;SDS011;10373;49.768;18.302;2023-06-10T04:33:57;23.83;;;21.33;;
20427;SDS011;10373;49.768;18.302;2023-06-10T04:36:23;31.48;;;25.88;;
20427;SDS011;10373;49.768;18.302;2023-06-10T04:38:48;34.05;;;27.88;;
20427;SDS011;10373;49.768;18.302;2023-06-10T04:41:14;27.45;;;24.20;;
20427;SDS011;10373;49.768;18.302;2023-06-10T04:43:40;27.10;;;24.20;;
20427;SDS011;10373;49.768;18.302;2023-06-10T04:46:06;31.23;;;25.70;;
20427;SDS011;10373;49.768;18.302;2023-06-10T04:48:32;24.23;;;21.63;;
20427;SDS011;10373;49.768;18.302;2023-06-10T04:51:00;30.23;;;23.23;;
20427;SDS011;10373;49.768;18.302;2023-06-10T04:53:25;21.95;;;19.65;;
20427;SDS011;10373;49.768;18.302;2023-06-10T04:55:53;29.75;;;24.77;;
20427;SDS011;10373;49.768;18.302;2023-06-10T04:58:19;26.90;;;23.30;;
20427;SDS011;10373;49.768;18.302;2023-06-10T05:00:45;23.92;;;21.27;;
20427;SDS011;10373;49.768;18.302;2023-06-10T05:03:10;33.03;;;26.52;;
20427;SDS011;10373;49.768;18.302;2023-06-10T05:05:36;33.70;;;27.85;;
20427;SDS011;10373;49.768;18.302;2023-06-10T05:08:01;31.05;;;26.83;;
20427;SDS011;10373;49.768;18.302;2023-06-10T05:10:27;32.08;;;26.65;;
20427;SDS011;10373;49.768;18.302;2023-06-10T05:12:56;35.15;;;28.48;;
20427;SDS011;10373;49.768;18.302;2023-06-10T05:15:22;30.60;;;26.75;;
20427;SDS011;10373;49.768;18.302;2023-06-10T05:17:48;29.52;;;24.40;;
20427;SDS011;10373;49.768;18.302;2023-06-10T05:20:14;33.70;;;27.88;;
20427;SDS011;10373;49.768;18.302;2023-06-10T05:22:40;33.72;;;28.55;;
20427;SDS011;10373;49.768;18.302;2023-06-10T05:25:06;34.97;;;30.00;;
20427;SDS011;10373;49.768;18.302;2023-06-10T05:27:33;34.70;;;28.02;;
20427;SDS011;10373;49.768;18.302;2023-06-10T05:29:58;33.30;;;26.58;;
20427;SDS011;10373;49.768;18.302;2023-06-10T05:32:24;30.15;;;25.17;;
20427;SDS011;10373;49.768;18.302;2023-06-10T05:34:50;37.10;;;30.60;;
20427;SDS011;10373;49.768;18.302;2023-06-10T05:37:15;40.25;;;32.08;;
20427;SDS011;10373;49.768;18.302;2023-06-10T05:39:41;47.03;;;36.83;;
20427;SDS011;10373;49.768;18.302;2023-06-10T05:42:07;41.65;;;33.53;;
20427;SDS011;10373;49.768;18.302;2023-06-10T05:44:33;43.53;;;33.80;;
20427;SDS011;10373;49.768;18.302;2023-06-10T05:46:59;47.65;;;35.83;;
20427;SDS011;10373;49.768;18.302;2023-06-10T05:49:25;46.63;;;37.63;;
20427;SDS011;10373;49.768;18.302;2023-06-10T05:51:51;42.67;;;33.60;;
20427;SDS011;10373;49.768;18.302;2023-06-10T05:54:17;41.80;;;33.05;;
20427;SDS011;10373;49.768;18.302;2023-06-10T05:56:44;53.97;;;36.47;;
20427;SDS011;10373;49.768;18.302;2023-06-10T05:59:09;42.72;;;35.10;;
20427;SDS011;10373;49.768;18.302;2023-06-10T06:01:35;42.78;;;34.25;;
20427;SDS011;10373;49.768;18.302;2023-06-10T06:04:01;37.00;;;29.55;;
20427;SDS011;10373;49.768;18.302;2023-06-10T06:06:26;27.25;;;23.40;;
20427;SDS011;10373;49.768;18.302;2023-06-10T06:08:52;41.45;;;32.25;;
20427;SDS011;10373;49.768;18.302;2023-06-10T06:11:18;37.20;;;29.85;;
20427;SDS011;10373;49.768;18.302;2023-06-10T06:13:44;37.95;;;30.92;;
20427;SDS011;10373;49.768;18.302;2023-06-10T06:16:09;32.60;;;27.73;;
20427;SDS011;10373;49.768;18.302;2023-06-10T06:18:35;38.20;;;31.77;;
20427;SDS011;10373;49.768;18.302;2023-06-10T06:21:01;38.92;;;31.83;;
20427;SDS011;10373;49.768;18.302;2023-06-10T06:23:26;41.10;;;34.10;;
20427;SDS011;10373;49.768;18.302;2023-06-10T06:25:52;40.58;;;32.03;;
20427;SDS011;10373;49.768;18.302;2023-06-10T06:28:17;36.67;;;29.35;;
20427;SDS011;10373;49.768;18.302;2023-06-10T06:30:45;39.85;;;31.42;;
20427;SDS011;10373;49.768;18.302;2023-06-10T06:33:11;35.80;;;29.13;;
20427;SDS011;10373;49.768;18.302;2023-06-10T06:35:37;38.65;;;32.38;;
20427;SDS011;10373;49.768;18.302;2023-06-10T06:38:03;37.17;;;31.98;;
20427;SDS011;10373;49.768;18.302;2023-06-10T06:40:29;32.00;;;28.02;;
20427;SDS011;10373;49.768;18.302;2023-06-10T06:42:55;32.83;;;28.05;;
20427;SDS011;10373;49.768;18.302;2023-06-10T06:45:21;33.45;;;27.85;;
20427;SDS011;10373;49.768;18.302;2023-06-10T06:47:46;35.70;;;30.13;;
20427;SDS011;10373;49.768;18.302;2023-06-10T06:50:12;44.42;;;35.17;;
20427;SDS011;10373;49.768;18.302;2023-06-10T06:52:38;46.85;;;36.20;;
20427;SDS011;10373;49.768;18.302;2023-06-10T06:55:04;38.08;;;31.52;;
20427;SDS011;10373;49.768;18.302;2023-06-10T06:57:30;42.35;;;33.55;;
20427;SDS011;10373;49.768;18.302;2023-06-10T06:59:55;43.03;;;33.47;;
20427;SDS011;10373;49.768;18.302;2023-06-10T07:02:21;44.05;;;35.67;;
20427;SDS011;10373;49.768;18.302;2023-06-10T07:04:47;36.80;;;29.58;;
20427;SDS011;10373;49.768;18.302;2023-06-10T07:07:14;36.42;;;29.02;;
20427;SDS011;10373;49.768;18.302;2023-06-10T07:09:40;47.75;;;36.53;;
20427;SDS011;10373;49.768;18.302;2023-06-10T07:12:06;49.45;;;37.50;;
20427;SDS011;10373;49.768;18.302;2023-06-10T07:14:32;47.10;;;36.15;;
20427;SDS011;10373;49.768;18.302;2023-06-10T07:16:58;44.08;;;34.20;;
20427;SDS011;10373;49.768;18.302;2023-06-10T07:19:23;45.70;;;34.97;;
20427;SDS011;10373;49.768;18.302;2023-06-10T07:21:49;34.65;;;28.35;;
20427;SDS011;10373;49.768;18.302;2023-06-10T07:24:15;35.05;;;27.35;;
20427;SDS011;10373;49.768;18.302;2023-06-10T07:26:40;27.77;;;22.98;;
20427;SDS011;10373;49.768;18.302;2023-06-10T07:29:06;30.63;;;26.58;;
20427;SDS011;10373;49.768;18.302;2023-06-10T07:31:32;27.77;;;24.85;;
20427;SDS011;10373;49.768;18.302;2023-06-10T07:33:57;30.88;;;27.52;;
20427;SDS011;10373;49.768;18.302;2023-06-10T07:36:23;32.83;;;27.02;;
20427;SDS011;10373;49.768;18.302;2023-06-10T07:38:49;29.73;;;25.83;;
20427;SDS011;10373;49.768;18.302;2023-06-10T07:41:14;25.17;;;22.50;;
20427;SDS011;10373;49.768;18.302;2023-06-10T07:43:42;21.95;;;19.48;;
20427;SDS011;10373;49.768;18.302;2023-06-10T07:46:08;32.40;;;26.77;;
20427;SDS011;10373;49.768;18.302;2023-06-10T07:48:34;26.25;;;23.20;;
20427;SDS011;10373;49.768;18.302;2023-06-10T07:50:59;21.45;;;19.17;;
20427;SDS011;10373;49.768;18.302;2023-06-10T07:53:25;21.98;;;19.67;;
20427;SDS011;10373;49.768;18.302;2023-06-10T07:55:51;24.05;;;19.15;;
20427;SDS011;10373;49.768;18.302;2023-06-10T07:58:16;19.60;;;17.55;;
20427;SDS011;10373;49.768;18.302;2023-06-10T08:00:42;17.27;;;15.48;;
20427;SDS011;10373;49.768;18.302;2023-06-10T08:03:08;16.77;;;15.05;;
20427;SDS011;10373;49.768;18.302;2023-06-10T08:05:33;19.55;;;16.77;;
20427;SDS011;10373;49.768;18.302;2023-06-10T08:08:02;17.95;;;15.48;;
20427;SDS011;10373;49.768;18.302;2023-06-10T08:10:28;18.88;;;16.95;;
20427;SDS011;10373;49.768;18.302;2023-06-10T08:12:53;17.98;;;16.05;;
20427;SDS011;10373;49.768;18.302;2023-06-10T08:15:19;19.88;;;15.88;;
20427;SDS011;10373;49.768;18.302;2023-06-10T08:17:45;19.77;;;17.00;;
20427;SDS011;10373;49.768;18.302;2023-06-10T08:20:10;19.55;;;16.67;;
20427;SDS011;10373;49.768;18.302;2023-06-10T08:22:36;18.67;;;16.75;;
20427;SDS011;10373;49.768;18.302;2023-06-10T08:25:03;19.77;;;15.65;;
20427;SDS011;10373;49.768;18.302;2023-06-10T08:27:29;19.90;;;17.45;;
20427;SDS011;10373;49.768;18.302;2023-06-10T08:29:54;18.92;;;16.05;;
20427;SDS011;10373;49.768;18.302;2023-06-10T08:32:20;17.60;;;15.65;;
20427;SDS011;10373;49.768;18.302;2023-06-10T08:34:45;20.95;;;15.35;;
20427;SDS011;10373;49.768;18.302;2023-06-10T08:37:11;17.65;;;14.00;;
20427;SDS011;10373;49.768;18.302;2023-06-10T08:39:37;18.38;;;14.80;;
20427;SDS011;10373;49.768;18.302;2023-06-10T08:44:28;17.67;;;14.60;;
20427;SDS011;10373;49.768;18.302;2023-06-10T08:46:59;16.10;;;13.55;;
20427;SDS011;10373;49.768;18.302;2023-06-10T08:49:26;18.27;;;16.10;;
20427;SDS011;10373;49.768;18.302;2023-06-10T08:51:56;15.82;;;13.65;;
20427;SDS011;10373;49.768;18.302;2023-06-10T08:54:25;18.25;;;16.33;;
20427;SDS011;10373;49.768;18.302;2023-06-10T08:56:53;15.80;;;14.20;;
20427;SDS011;10373;49.768;18.302;2023-06-10T08:59:22;16.40;;;13.25;;
20427;SDS011;10373;49.768;18.302;2023-06-10T09:01:49;14.27;;;12.40;;
20427;SDS011;10373;49.768;18.302;2023-06-10T09:04:15;17.80;;;14.00;;
20427;SDS011;10373;49.768;18.302;2023-06-10T09:06:42;13.57;;;12.13;;
20427;SDS011;10373;49.768;18.302;2023-06-10T09:09:09;13.60;;;11.98;;
20427;SDS011;10373;49.768;18.302;2023-06-10T09:11:37;12.88;;;11.57;;
20427;SDS011;10373;49.768;18.302;2023-06-10T09:14:03;13.73;;;12.30;;
20427;SDS011;10373;49.768;18.302;2023-06-10T09:16:29;13.10;;;11.80;;
20427;SDS011;10373;49.768;18.302;2023-06-10T09:18:55;12.43;;;11.13;;
20427;SDS011;10373;49.768;18.302;2023-06-10T09:21:24;11.45;;;10.32;;
20427;SDS011;10373;49.768;18.302;2023-06-10T09:23:51;11.40;;;10.20;;
20427;SDS011;10373;49.768;18.302;2023-06-10T09:26:17;10.70;;;9.70;;
20427;SDS011;10373;49.768;18.302;2023-06-10T09:28:44;11.25;;;8.93;;
20427;SDS011;10373;49.768;18.302;2023-06-10T09:31:12;9.27;;;8.27;;
20427;SDS011;10373;49.768;18.302;2023-06-10T09:33:39;7.88;;;7.18;;
20427;SDS011;10373;49.768;18.302;2023-06-10T09:36:05;11.05;;;7.75;;
20427;SDS011;10373;49.768;18.302;2023-06-10T09:38:31;9.98;;;8.75;;
20427;SDS011;10373;49.768;18.302;2023-06-10T09:40:58;9.43;;;7.97;;
20427;SDS011;10373;49.768;18.302;2023-06-10T09:43:42;14.82;;;10.35;;
20427;SDS011;10373;49.768;18.302;2023-06-10T09:46:17;10.07;;;8.98;;
20427;SDS011;10373;49.768;18.302;2023-06-10T09:48:44;10.98;;;9.85;;
20427;SDS011;10373;49.768;18.302;2023-06-10T09:51:12;10.75;;;9.27;;
20427;SDS011;10373;49.768;18.302;2023-06-10T09:53:38;10.80;;;9.70;;
20427;SDS011;10373;49.768;18.302;2023-06-10T09:56:04;11.38;;;9.68;;
20427;SDS011;10373;49.768;18.302;2023-06-10T09:58:37;10.82;;;9.52;;
20427;SDS011;10373;49.768;18.302;2023-06-10T10:01:05;9.35;;;7.55;;
20427;SDS011;10373;49.768;18.302;2023-06-10T10:03:31;10.27;;;9.18;;
20427;SDS011;10373;49.768;18.302;2023-06-10T10:05:58;9.00;;;7.38;;
20427;SDS011;10373;49.768;18.302;2023-06-10T10:08:25;7.82;;;6.90;;
20427;SDS011;10373;49.768;18.302;2023-06-10T10:10:51;12.93;;;8.80;;
20427;SDS011;10373;49.768;18.302;2023-06-10T10:13:17;17.05;;;12.45;;
20427;SDS011;10373;49.768;18.302;2023-06-10T10:15:43;14.95;;;11.23;;
20427;SDS011;10373;49.768;18.302;2023-06-10T10:18:11;20.48;;;13.70;;
20427;SDS011;10373;49.768;18.302;2023-06-10T10:20:46;16.35;;;9.60;;
20427;SDS011;10373;49.768;18.302;2023-06-10T10:23:17;9.43;;;8.45;;
20427;SDS011;10373;49.768;18.302;2023-06-10T10:25:49;10.20;;;9.20;;
20427;SDS011;10373;49.768;18.302;2023-06-10T10:28:18;11.15;;;8.80;;
20427;SDS011;10373;49.768;18.302;2023-06-10T10:30:47;8.73;;;7.93;;
20427;SDS011;10373;49.768;18.302;2023-06-10T10:35:43;7.80;;;6.05;;
20427;SDS011;10373;49.768;18.302;2023-06-10T10:38:10;9.15;;;6.70;;
20427;SDS011;10373;49.768;18.302;2023-06-10T10:40:37;8.15;;;6.22;;
20427;SDS011;10373;49.768;18.302;2023-06-10T10:43:04;7.50;;;6.70;;
20427;SDS011;10373;49.768;18.302;2023-06-10T10:45:30;10.23;;;8.55;;
20427;SDS011;10373;49.768;18.302;2023-06-10T10:47:58;13.10;;;8.07;;
20427;SDS011;10373;49.768;18.302;2023-06-10T10:50:37;8.65;;;7.38;;
20427;SDS011;10373;49.768;18.302;2023-06-10T10:53:03;8.10;;;7.30;;
20427;SDS011;10373;49.768;18.302;2023-06-10T10:55:30;8.35;;;6.88;;
20427;SDS011;10373;49.768;18.302;2023-06-10T10:58:02;8.20;;;5.88;;
20427;SDS011;10373;49.768;18.302;2023-06-10T11:00:33;11.77;;;6.53;;
20427;SDS011;10373;49.768;18.302;2023-06-10T11:06:02;6.47;;;5.80;;
20427;SDS011;10373;49.768;18.302;2023-06-10T11:10:58;8.00;;;6.25;;
20427;SDS011;10373;49.768;18.302;2023-06-10T11:13:25;14.50;;;9.25;;
20427;SDS011;10373;49.768;18.302;2023-06-10T11:15:52;12.75;;;8.48;;
20427;SDS011;10373;49.768;18.302;2023-06-10T11:18:28;15.25;;;10.63;;
20427;SDS011;10373;49.768;18.302;2023-06-10T11:21:04;15.38;;;11.27;;
20427;SDS011;10373;49.768;18.302;2023-06-10T11:23:34;12.18;;;8.85;;
20427;SDS011;10373;49.768;18.302;2023-06-10T11:26:13;9.25;;;7.75;;
20427;SDS011;10373;49.768;18.302;2023-06-10T11:28:41;19.15;;;11.13;;
20427;SDS011;10373;49.768;18.302;2023-06-10T11:31:30;13.20;;;9.82;;
20427;SDS011;10373;49.768;18.302;2023-06-10T11:34:01;18.95;;;12.13;;
20427;SDS011;10373;49.768;18.302;2023-06-10T11:36:29;11.93;;;9.00;;
20427;SDS011;10373;49.768;18.302;2023-06-10T11:38:56;11.45;;;9.25;;
20427;SDS011;10373;49.768;18.302;2023-06-10T11:41:27;10.43;;;8.05;;
20427;SDS011;10373;49.768;18.302;2023-06-10T11:43:54;14.30;;;10.52;;
20427;SDS011;10373;49.768;18.302;2023-06-10T11:46:23;13.88;;;9.70;;
20427;SDS011;10373;49.768;18.302;2023-06-10T11:48:53;13.93;;;9.32;;
20427;SDS011;10373;49.768;18.302;2023-06-10T11:51:26;12.55;;;8.68;;
20427;SDS011;10373;49.768;18.302;2023-06-10T11:53:55;9.15;;;7.55;;
20427;SDS011;10373;49.768;18.302;2023-06-10T11:56:21;12.48;;;8.85;;
20427;SDS011;10373;49.768;18.302;2023-06-10T11:59:01;13.23;;;8.02;;
20427;SDS011;10373;49.768;18.302;2023-06-10T12:01:42;15.18;;;8.50;;
20427;SDS011;10373;49.768;18.302;2023-06-10T12:04:10;15.20;;;8.20;;
20427;SDS011;10373;49.768;18.302;2023-06-10T12:06:45;8.85;;;5.57;;
20427;SDS011;10373;49.768;18.302;2023-06-10T12:11:44;10.77;;;6.43;;
20427;SDS011;10373;49.768;18.302;2023-06-10T12:14:13;10.68;;;7.13;;
20427;SDS011;10373;49.768;18.302;2023-06-10T12:16:39;9.43;;;6.78;;
20427;SDS011;10373;49.768;18.302;2023-06-10T12:19:05;16.10;;;8.48;;
20427;SDS011;10373;49.768;18.302;2023-06-10T12:21:32;11.15;;;7.80;;
20427;SDS011;10373;49.768;18.302;2023-06-10T12:24:09;10.98;;;7.18;;
20427;SDS011;10373;49.768;18.302;2023-06-10T12:26:42;9.85;;;7.45;;
20427;SDS011;10373;49.768;18.302;2023-06-10T12:29:15;13.13;;;7.60;;
20427;SDS011;10373;49.768;18.302;2023-06-10T12:32:01;10.35;;;7.75;;
20427;SDS011;10373;49.768;18.302;2023-06-10T12:34:37;12.05;;;8.70;;
20427;SDS011;10373;49.768;18.302;2023-06-10T12:37:10;10.43;;;7.05;;
20427;SDS011;10373;49.768;18.302;2023-06-10T12:39:39;8.05;;;5.95;;
20427;SDS011;10373;49.768;18.302;2023-06-10T12:42:06;11.40;;;6.80;;
20427;SDS011;10373;49.768;18.302;2023-06-10T12:44:35;12.98;;;6.93;;
20427;SDS011;10373;49.768;18.302;2023-06-10T12:47:07;10.98;;;7.70;;
20427;SDS011;10373;49.768;18.302;2023-06-10T12:49:35;11.52;;;7.30;;
20427;SDS011;10373;49.768;18.302;2023-06-10T12:52:01;6.65;;;5.45;;
20427;SDS011;10373;49.768;18.302;2023-06-10T12:54:28;6.93;;;6.00;;
20427;SDS011;10373;49.768;18.302;2023-06-10T12:56:53;6.60;;;5.90;;
20427;SDS011;10373;49.768;18.302;2023-06-10T12:59:19;10.95;;;6.70;;
20427;SDS011;10373;49.768;18.302;2023-06-10T13:01:49;8.18;;;5.97;;
20427;SDS011;10373;49.768;18.302;2023-06-10T13:04:19;6.47;;;5.82;;
20427;SDS011;10373;49.768;18.302;2023-06-10T13:06:45;7.03;;;6.00;;
20427;SDS011;10373;49.768;18.302;2023-06-10T13:09:12;5.80;;;5.20;;
20427;SDS011;10373;49.768;18.302;2023-06-10T13:11:39;7.85;;;5.90;;
20427;SDS011;10373;49.768;18.302;2023-06-10T13:14:05;7.10;;;6.47;;
20427;SDS011;10373;49.768;18.302;2023-06-10T13:16:31;6.40;;;5.63;;
20427;SDS011;10373;49.768;18.302;2023-06-10T13:18:58;6.97;;;6.15;;
20427;SDS011;10373;49.768;18.302;2023-06-10T13:21:24;7.45;;;5.95;;
20427;SDS011;10373;49.768;18.302;2023-06-10T13:23:50;7.07;;;6.38;;
20427;SDS011;10373;49.768;18.302;2023-06-10T13:26:16;8.40;;;5.75;;
20427;SDS011;10373;49.768;18.302;2023-06-10T13:28:43;8.30;;;6.25;;
20427;SDS011;10373;49.768;18.302;2023-06-10T13:31:08;9.77;;;6.75;;
20427;SDS011;10373;49.768;18.302;2023-06-10T13:33:35;6.50;;;5.75;;
20427;SDS011;10373;49.768;18.302;2023-06-10T13:36:00;7.20;;;6.40;;
20427;SDS011;10373;49.768;18.302;2023-06-10T13:38:26;6.90;;;6.05;;
20427;SDS011;10373;49.768;18.302;2023-06-10T13:40:51;7.18;;;5.50;;
20427;SDS011;10373;49.768;18.302;2023-06-10T13:43:17;6.78;;;6.10;;
20427;SDS011;10373;49.768;18.302;2023-06-10T13:45:43;8.20;;;6.55;;
20427;SDS011;10373;49.768;18.302;2023-06-10T13:48:08;7.50;;;5.45;;
20427;SDS011;10373;49.768;18.302;2023-06-10T13:50:34;6.55;;;4.95;;
20427;SDS011;10373;49.768;18.302;2023-06-10T13:53:00;6.10;;;5.25;;
20427;SDS011;10373;49.768;18.302;2023-06-10T13:55:26;5.03;;;4.57;;
20427;SDS011;10373;49.768;18.302;2023-06-10T13:57:51;4.82;;;4.35;;
20427;SDS011;10373;49.768;18.302;2023-06-10T14:00:17;5.45;;;4.47;;
20427;SDS011;10373;49.768;18.302;2023-06-10T14:02:43;5.20;;;4.55;;
20427;SDS011;10373;49.768;18.302;2023-06-10T14:05:09;5.65;;;5.13;;
20427;SDS011;10373;49.768;18.302;2023-06-10T14:07:35;6.25;;;4.78;;
20427;SDS011;10373;49.768;18.302;2023-06-10T14:10:02;6.30;;;4.35;;
20427;SDS011;10373;49.768;18.302;2023-06-10T14:12:28;4.80;;;4.40;;
20427;SDS011;10373;49.768;18.302;2023-06-10T14:14:54;4.85;;;4.30;;
20427;SDS011;10373;49.768;18.302;2023-06-10T14:17:19;6.72;;;4.90;;
20427;SDS011;10373;49.768;18.302;2023-06-10T14:19:45;4.30;;;3.90;;
20427;SDS011;10373;49.768;18.302;2023-06-10T14:22:11;7.20;;;4.80;;
20427;SDS011;10373;49.768;18.302;2023-06-10T14:24:36;5.30;;;4.80;;
20427;SDS011;10373;49.768;18.302;2023-06-10T14:27:02;5.97;;;4.78;;
20427;SDS011;10373;49.768;18.302;2023-06-10T14:29:28;4.50;;;4.10;;
20427;SDS011;10373;49.768;18.302;2023-06-10T14:31:54;4.97;;;4.20;;